createdAt,value
2022-11-29T00:02:53.309Z,3.90
2022-11-29T00:07:55.747Z,3.90
2022-11-29T00:12:58.010Z,3.80
2022-11-29T00:18:00.229Z,3.90
2022-11-29T00:23:02.585Z,3.80
2022-11-29T00:28:04.947Z,3.80
2022-11-29T00:33:07.326Z,3.70
2022-11-29T00:38:09.920Z,3.80
2022-11-29T00:43:12.136Z,3.70
2022-11-29T00:48:14.362Z,3.80
2022-11-29T00:53:16.874Z,3.70
2022-11-29T00:58:19.989Z,3.70
2022-11-29T01:03:22.629Z,3.80
2022-11-29T01:08:24.834Z,3.70
2022-11-29T01:13:27.087Z,3.80
2022-11-29T01:18:30.542Z,3.80
2022-11-29T01:23:33.849Z,3.90
2022-11-29T01:28:37.351Z,3.70
2022-11-29T01:33:39.757Z,3.80
2022-11-29T01:38:42.785Z,3.70
2022-11-29T01:44:14.133Z,3.80
2022-11-29T01:49:30.417Z,3.70
2022-11-29T01:54:36.754Z,3.70
2022-11-29T01:59:44.135Z,3.70
2022-11-29T02:04:47.609Z,3.70
2022-11-29T02:09:49.923Z,3.70
2022-11-29T02:15:09.925Z,3.60
2022-11-29T02:20:24.179Z,3.70
2022-11-29T02:26:03.126Z,3.70
2022-11-29T02:31:27.129Z,3.60
2022-11-29T02:36:50.244Z,3.60
2022-11-29T02:42:15.655Z,3.70
2022-11-29T02:47:40.855Z,3.70
2022-11-29T02:53:06.963Z,3.80
2022-11-29T02:58:31.630Z,3.70
2022-11-29T03:03:50.753Z,3.60
2022-11-29T03:09:09.375Z,3.60
2022-11-29T03:14:14.765Z,3.70
2022-11-29T03:19:40.335Z,3.70
2022-11-29T03:25:00.939Z,3.60
2022-11-29T03:30:07.009Z,3.60
2022-11-29T03:35:30.839Z,3.70
2022-11-29T03:40:54.868Z,3.60
2022-11-29T03:46:08.907Z,3.60
2022-11-29T03:51:26.304Z,3.60
2022-11-29T03:56:38.276Z,3.60
2022-11-29T04:02:17.974Z,3.60
2022-11-29T04:07:40.597Z,3.60
2022-11-29T04:13:07.283Z,3.60
2022-11-29T04:18:37.122Z,3.50
2022-11-29T04:24:10.106Z,3.50
2022-11-29T04:29:18.174Z,3.60
2022-11-29T04:34:46.388Z,3.50
2022-11-29T04:40:06.561Z,3.50
2022-11-29T04:45:36.408Z,3.50
2022-11-29T04:51:17.554Z,3.50
2022-11-29T04:56:30.070Z,3.40
2022-11-29T05:01:48.603Z,3.30
2022-11-29T05:07:16.190Z,3.30
2022-11-29T05:12:49.139Z,3.40
2022-11-29T05:18:05.507Z,3.30
2022-11-29T05:23:29.645Z,3.30
2022-11-29T05:28:56.655Z,3.30
2022-11-29T05:34:30.265Z,3.30
2022-11-29T05:40:17.402Z,3.20
2022-11-29T05:45:41.041Z,3.20
2022-11-29T05:50:56.666Z,3.20
2022-11-29T05:56:28.544Z,3.20
2022-11-29T06:02:04.091Z,3.20
2022-11-29T06:07:42.607Z,3.20
2022-11-29T06:13:11.411Z,3.20
2022-11-29T06:18:23.643Z,3.10
2022-11-29T06:23:43.940Z,3.00
2022-11-29T06:28:55.316Z,3.00
2022-11-29T06:34:09.626Z,3.00
2022-11-29T06:39:12.305Z,3.10
2022-11-29T06:44:14.982Z,3.00
2022-11-29T06:49:37.897Z,3.00
2022-11-29T06:54:55.255Z,3.00
2022-11-29T07:00:15.075Z,3.00
2022-11-29T07:05:28.236Z,2.90
2022-11-29T07:10:33.383Z,2.90
2022-11-29T07:15:37.070Z,2.90
